sensor_id;sensor_type;location;lat;lon;timestamp;temperature;humidity
45983;DHT22;31711;47.158;7.346;2023-05-10T00:01:24;12.80;99.90
45983;DHT22;31711;47.158;7.346;2023-05-10T00:03:50;12.80;99.90
45983;DHT22;31711;47.158;7.346;2023-05-10T00:06:16;12.80;99.90
45983;DHT22;31711;47.158;7.346;2023-05-10T00:08:43;12.80;99.90
45983;DHT22;31711;47.158;7.346;2023-05-10T00:11:09;12.80;99.90
45983;DHT22;31711;47.158;7.346;2023-05-10T00:13:35;12.70;99.90
45983;DHT22;31711;47.158;7.346;2023-05-10T00:16:01;12.70;99.90
45983;DHT22;31711;47.158;7.346;2023-05-10T00:18:27;12.70;99.90
45983;DHT22;31711;47.158;7.346;2023-05-10T00:20:52;12.70;99.90
45983;DHT22;31711;47.158;7.346;2023-05-10T00:23:18;12.60;99.90
45983;DHT22;31711;47.158;7.346;2023-05-10T00:25:44;12.60;99.90
45983;DHT22;31711;47.158;7.346;2023-05-10T00:28:10;12.60;99.90
45983;DHT22;31711;47.158;7.346;2023-05-10T00:30:36;12.50;99.90
45983;DHT22;31711;47.158;7.346;2023-05-10T00:33:02;12.50;99.90
45983;DHT22;31711;47.158;7.346;2023-05-10T00:35:28;12.40;99.90
45983;DHT22;31711;47.158;7.346;2023-05-10T00:37:54;12.40;99.90
45983;DHT22;31711;47.158;7.346;2023-05-10T00:40:20;12.40;99.90
45983;DHT22;31711;47.158;7.346;2023-05-10T00:42:46;12.40;99.90
45983;DHT22;31711;47.158;7.346;2023-05-10T00:45:12;12.40;99.90
45983;DHT22;31711;47.158;7.346;2023-05-10T00:47:38;12.40;99.90
45983;DHT22;31711;47.158;7.346;2023-05-10T00:50:05;12.50;99.90
45983;DHT22;31711;47.158;7.346;2023-05-10T00:52:32;12.50;99.90
45983;DHT22;31711;47.158;7.346;2023-05-10T00:54:58;12.50;99.90
45983;DHT22;31711;47.158;7.346;2023-05-10T00:57:24;12.50;99.90
45983;DHT22;31711;47.158;7.346;2023-05-10T00:59:50;12.50;99.90
45983;DHT22;31711;47.158;7.346;2023-05-10T01:02:17;12.60;99.90
45983;DHT22;31711;47.158;7.346;2023-05-10T01:04:43;12.60;99.90
45983;DHT22;31711;47.158;7.346;2023-05-10T01:07:09;12.60;99.90
45983;DHT22;31711;47.158;7.346;2023-05-10T01:09:36;12.60;99.90
45983;DHT22;31711;47.158;7.346;2023-05-10T01:12:02;12.60;99.90
45983;DHT22;31711;47.158;7.346;2023-05-10T01:14:29;12.50;99.90
45983;DHT22;31711;47.158;7.346;2023-05-10T01:16:55;12.50;99.90
45983;DHT22;31711;47.158;7.346;2023-05-10T01:19:27;12.50;99.90
45983;DHT22;31711;47.158;7.346;2023-05-10T01:27:42;12.60;99.90
45983;DHT22;31711;47.158;7.346;2023-05-10T01:38:47;12.70;99.90
45983;DHT22;31711;47.158;7.346;2023-05-10T01:44:39;12.70;99.90
45983;DHT22;31711;47.158;7.346;2023-05-10T01:47:17;12.70;99.90
45983;DHT22;31711;47.158;7.346;2023-05-10T01:49:49;12.70;99.90
45983;DHT22;31711;47.158;7.346;2023-05-10T01:52:18;12.70;99.90
45983;DHT22;31711;47.158;7.346;2023-05-10T01:54:55;12.70;99.90
45983;DHT22;31711;47.158;7.346;2023-05-10T01:57:27;12.70;99.90
45983;DHT22;31711;47.158;7.346;2023-05-10T01:59:54;12.70;99.90
45983;DHT22;31711;47.158;7.346;2023-05-10T02:02:21;12.70;99.90
45983;DHT22;31711;47.158;7.346;2023-05-10T02:04:49;12.70;99.90
45983;DHT22;31711;47.158;7.346;2023-05-10T02:07:16;12.70;99.90
45983;DHT22;31711;47.158;7.346;2023-05-10T02:09:44;12.70;99.90
45983;DHT22;31711;47.158;7.346;2023-05-10T02:12:13;12.70;99.90
45983;DHT22;31711;47.158;7.346;2023-05-10T02:14:41;12.70;99.90
45983;DHT22;31711;47.158;7.346;2023-05-10T02:17:09;12.70;99.90
45983;DHT22;31711;47.158;7.346;2023-05-10T02:19:40;12.70;99.90
45983;DHT22;31711;47.158;7.346;2023-05-10T02:22:08;12.70;99.90
45983;DHT22;31711;47.158;7.346;2023-05-10T02:24:35;12.70;99.90
45983;DHT22;31711;47.158;7.346;2023-05-10T02:27:03;12.70;99.90
45983;DHT22;31711;47.158;7.346;2023-05-10T02:29:31;12.70;99.90
45983;DHT22;31711;47.158;7.346;2023-05-10T02:31:58;12.80;99.90
45983;DHT22;31711;47.158;7.346;2023-05-10T02:34:26;12.70;99.90
45983;DHT22;31711;47.158;7.346;2023-05-10T02:36:54;12.70;99.90
45983;DHT22;31711;47.158;7.346;2023-05-10T02:39:21;12.70;99.90
45983;DHT22;31711;47.158;7.346;2023-05-10T02:41:49;12.70;99.90
45983;DHT22;31711;47.158;7.346;2023-05-10T02:44:19;12.70;99.90
45983;DHT22;31711;47.158;7.346;2023-05-10T02:46:45;12.80;99.90
45983;DHT22;31711;47.158;7.346;2023-05-10T02:49:12;12.70;99.90
45983;DHT22;31711;47.158;7.346;2023-05-10T02:51:42;12.60;99.90
45983;DHT22;31711;47.158;7.346;2023-05-10T02:54:18;12.60;99.90
45983;DHT22;31711;47.158;7.346;2023-05-10T02:56:50;12.50;99.90
45983;DHT22;31711;47.158;7.346;2023-05-10T02:59:16;12.50;99.90
45983;DHT22;31711;47.158;7.346;2023-05-10T03:01:42;12.50;99.90
45983;DHT22;31711;47.158;7.346;2023-05-10T03:04:08;12.40;99.90
45983;DHT22;31711;47.158;7.346;2023-05-10T03:06:34;12.50;99.90
45983;DHT22;31711;47.158;7.346;2023-05-10T03:09:02;12.50;99.90
45983;DHT22;31711;47.158;7.346;2023-05-10T03:16:48;12.40;99.90
45983;DHT22;31711;47.158;7.346;2023-05-10T03:19:26;12.40;99.90
45983;DHT22;31711;47.158;7.346;2023-05-10T03:21:56;12.40;99.90
45983;DHT22;31711;47.158;7.346;2023-05-10T03:24:27;12.40;99.90
45983;DHT22;31711;47.158;7.346;2023-05-10T03:26:56;12.40;99.90
45983;DHT22;31711;47.158;7.346;2023-05-10T03:29:26;12.40;99.90
45983;DHT22;31711;47.158;7.346;2023-05-10T03:31:53;12.40;99.90
45983;DHT22;31711;47.158;7.346;2023-05-10T03:34:25;12.40;99.90
45983;DHT22;31711;47.158;7.346;2023-05-10T03:36:52;12.40;99.90
45983;DHT22;31711;47.158;7.346;2023-05-10T03:39:18;12.40;99.90
45983;DHT22;31711;47.158;7.346;2023-05-10T03:41:44;12.40;99.90
45983;DHT22;31711;47.158;7.346;2023-05-10T03:44:09;12.40;99.90
45983;DHT22;31711;47.158;7.346;2023-05-10T03:46:36;12.50;99.90
45983;DHT22;31711;47.158;7.346;2023-05-10T03:49:02;12.40;99.90
45983;DHT22;31711;47.158;7.346;2023-05-10T03:51:28;12.40;99.90
45983;DHT22;31711;47.158;7.346;2023-05-10T03:53:54;12.40;99.90
45983;DHT22;31711;47.158;7.346;2023-05-10T03:56:21;12.50;99.90
45983;DHT22;31711;47.158;7.346;2023-05-10T03:58:48;12.50;99.90
45983;DHT22;31711;47.158;7.346;2023-05-10T04:01:14;12.50;99.90
45983;DHT22;31711;47.158;7.346;2023-05-10T04:03:40;12.50;99.90
45983;DHT22;31711;47.158;7.346;2023-05-10T04:06:06;12.40;99.90
45983;DHT22;31711;47.158;7.346;2023-05-10T04:08:34;12.50;99.90
45983;DHT22;31711;47.158;7.346;2023-05-10T04:11:11;12.50;99.90
45983;DHT22;31711;47.158;7.346;2023-05-10T04:13:38;12.50;99.90
45983;DHT22;31711;47.158;7.346;2023-05-10T04:16:04;12.50;99.90
45983;DHT22;31711;47.158;7.346;2023-05-10T04:18:30;12.50;99.90
45983;DHT22;31711;47.158;7.346;2023-05-10T04:20:57;12.50;99.90
45983;DHT22;31711;47.158;7.346;2023-05-10T04:23:23;12.50;99.90
45983;DHT22;31711;47.158;7.346;2023-05-10T04:25:49;12.50;99.90
45983;DHT22;31711;47.158;7.346;2023-05-10T04:28:15;12.50;99.90
45983;DHT22;31711;47.158;7.346;2023-05-10T04:30:41;12.50;99.90
45983;DHT22;31711;47.158;7.346;2023-05-10T04:33:07;12.50;99.90
45983;DHT22;31711;47.158;7.346;2023-05-10T04:35:34;12.50;99.90
45983;DHT22;31711;47.158;7.346;2023-05-10T04:38:00;12.40;99.90
45983;DHT22;31711;47.158;7.346;2023-05-10T04:40:26;12.50;99.90
45983;DHT22;31711;47.158;7.346;2023-05-10T04:42:52;12.40;99.90
45983;DHT22;31711;47.158;7.346;2023-05-10T04:45:18;12.40;99.90
45983;DHT22;31711;47.158;7.346;2023-05-10T04:47:44;12.40;99.90
45983;DHT22;31711;47.158;7.346;2023-05-10T04:50:10;12.40;99.90
45983;DHT22;31711;47.158;7.346;2023-05-10T04:52:36;12.30;99.90
45983;DHT22;31711;47.158;7.346;2023-05-10T04:55:02;12.40;99.90
45983;DHT22;31711;47.158;7.346;2023-05-10T04:57:28;12.40;99.90
45983;DHT22;31711;47.158;7.346;2023-05-10T04:59:54;12.50;99.90
45983;DHT22;31711;47.158;7.346;2023-05-10T05:02:20;12.40;99.90
45983;DHT22;31711;47.158;7.346;2023-05-10T05:04:46;12.50;99.90
45983;DHT22;31711;47.158;7.346;2023-05-10T05:07:11;12.50;99.90
45983;DHT22;31711;47.158;7.346;2023-05-10T05:09:37;12.40;99.90
45983;DHT22;31711;47.158;7.346;2023-05-10T05:12:04;12.50;99.90
45983;DHT22;31711;47.158;7.346;2023-05-10T05:14:29;12.40;99.90
45983;DHT22;31711;47.158;7.346;2023-05-10T05:16:56;12.40;99.90
45983;DHT22;31711;47.158;7.346;2023-05-10T05:19:22;12.40;99.90
45983;DHT22;31711;47.158;7.346;2023-05-10T05:21:48;12.50;99.90
45983;DHT22;31711;47.158;7.346;2023-05-10T05:24:14;12.40;99.90
45983;DHT22;31711;47.158;7.346;2023-05-10T05:26:40;12.30;99.90
45983;DHT22;31711;47.158;7.346;2023-05-10T05:29:06;12.20;99.90
45983;DHT22;31711;47.158;7.346;2023-05-10T05:31:32;12.10;99.90
45983;DHT22;31711;47.158;7.346;2023-05-10T05:34:04;11.90;99.90
45983;DHT22;31711;47.158;7.346;2023-05-10T05:36:30;11.90;99.90
45983;DHT22;31711;47.158;7.346;2023-05-10T05:38:57;11.70;99.90
45983;DHT22;31711;47.158;7.346;2023-05-10T05:41:23;11.70;99.90
45983;DHT22;31711;47.158;7.346;2023-05-10T05:43:50;11.70;99.90
45983;DHT22;31711;47.158;7.346;2023-05-10T05:46:16;11.70;99.90
45983;DHT22;31711;47.158;7.346;2023-05-10T05:48:42;11.80;99.90
45983;DHT22;31711;47.158;7.346;2023-05-10T05:51:08;11.80;99.90
45983;DHT22;31711;47.158;7.346;2023-05-10T05:53:34;11.90;99.90
45983;DHT22;31711;47.158;7.346;2023-05-10T05:56:00;12.00;99.90
45983;DHT22;31711;47.158;7.346;2023-05-10T05:58:26;12.00;99.90
45983;DHT22;31711;47.158;7.346;2023-05-10T06:00:52;12.10;99.90
45983;DHT22;31711;47.158;7.346;2023-05-10T06:03:18;12.40;99.90
45983;DHT22;31711;47.158;7.346;2023-05-10T06:05:44;12.30;99.90
45983;DHT22;31711;47.158;7.346;2023-05-10T06:08:10;12.30;99.90
45983;DHT22;31711;47.158;7.346;2023-05-10T06:10:37;12.40;99.90
45983;DHT22;31711;47.158;7.346;2023-05-10T06:13:03;12.50;99.90
45983;DHT22;31711;47.158;7.346;2023-05-10T06:15:29;12.30;99.90
45983;DHT22;31711;47.158;7.346;2023-05-10T06:17:55;12.30;99.90
45983;DHT22;31711;47.158;7.346;2023-05-10T06:20:21;12.30;99.90
45983;DHT22;31711;47.158;7.346;2023-05-10T06:22:47;12.30;99.90
45983;DHT22;31711;47.158;7.346;2023-05-10T06:25:13;12.30;99.90
45983;DHT22;31711;47.158;7.346;2023-05-10T06:27:40;12.40;99.90
45983;DHT22;31711;47.158;7.346;2023-05-10T06:30:06;12.40;99.90
45983;DHT22;31711;47.158;7.346;2023-05-10T06:32:33;12.50;99.90
45983;DHT22;31711;47.158;7.346;2023-05-10T06:34:59;12.60;99.90
45983;DHT22;31711;47.158;7.346;2023-05-10T06:37:25;12.60;99.90
45983;DHT22;31711;47.158;7.346;2023-05-10T06:39:51;12.60;99.90
45983;DHT22;31711;47.158;7.346;2023-05-10T06:42:17;12.60;99.90
45983;DHT22;31711;47.158;7.346;2023-05-10T06:44:43;12.70;99.90
45983;DHT22;31711;47.158;7.346;2023-05-10T06:47:09;12.60;99.90
45983;DHT22;31711;47.158;7.346;2023-05-10T06:49:35;12.80;99.90
45983;DHT22;31711;47.158;7.346;2023-05-10T06:52:02;13.00;99.90
45983;DHT22;31711;47.158;7.346;2023-05-10T06:54:28;13.30;99.90
45983;DHT22;31711;47.158;7.346;2023-05-10T06:56:54;13.40;99.90
45983;DHT22;31711;47.158;7.346;2023-05-10T06:59:20;13.40;99.90
45983;DHT22;31711;47.158;7.346;2023-05-10T07:01:47;13.30;99.90
45983;DHT22;31711;47.158;7.346;2023-05-10T07:04:13;13.10;99.90
45983;DHT22;31711;47.158;7.346;2023-05-10T07:06:39;13.10;99.90
45983;DHT22;31711;47.158;7.346;2023-05-10T07:09:05;12.80;99.90
45983;DHT22;31711;47.158;7.346;2023-05-10T07:11:31;12.70;99.90
45983;DHT22;31711;47.158;7.346;2023-05-10T07:13:57;12.70;99.90
45983;DHT22;31711;47.158;7.346;2023-05-10T07:16:23;12.70;99.90
45983;DHT22;31711;47.158;7.346;2023-05-10T07:18:49;12.80;99.90
45983;DHT22;31711;47.158;7.346;2023-05-10T07:21:16;12.90;99.90
45983;DHT22;31711;47.158;7.346;2023-05-10T07:23:42;13.00;99.90
45983;DHT22;31711;47.158;7.346;2023-05-10T07:26:08;13.10;99.90
45983;DHT22;31711;47.158;7.346;2023-05-10T07:28:35;13.30;99.90
45983;DHT22;31711;47.158;7.346;2023-05-10T07:31:03;13.50;99.90
45983;DHT22;31711;47.158;7.346;2023-05-10T07:33:29;13.60;99.90
45983;DHT22;31711;47.158;7.346;2023-05-10T07:35:55;13.70;99.90
45983;DHT22;31711;47.158;7.346;2023-05-10T07:38:21;13.80;99.90
45983;DHT22;31711;47.158;7.346;2023-05-10T07:40:47;13.80;99.90
45983;DHT22;31711;47.158;7.346;2023-05-10T07:43:13;13.80;99.90
45983;DHT22;31711;47.158;7.346;2023-05-10T07:45:39;13.70;99.90
45983;DHT22;31711;47.158;7.346;2023-05-10T07:48:05;13.40;99.90
45983;DHT22;31711;47.158;7.346;2023-05-10T07:50:31;13.30;99.90
45983;DHT22;31711;47.158;7.346;2023-05-10T07:52:57;13.20;99.90
45983;DHT22;31711;47.158;7.346;2023-05-10T07:55:23;13.10;99.90
45983;DHT22;31711;47.158;7.346;2023-05-10T07:57:49;13.20;99.90
45983;DHT22;31711;47.158;7.346;2023-05-10T08:00:19;13.20;99.90
45983;DHT22;31711;47.158;7.346;2023-05-10T08:02:45;13.30;99.90
45983;DHT22;31711;47.158;7.346;2023-05-10T08:05:12;13.30;99.90
45983;DHT22;31711;47.158;7.346;2023-05-10T08:07:38;13.40;99.90
45983;DHT22;31711;47.158;7.346;2023-05-10T08:10:04;13.40;99.90
45983;DHT22;31711;47.158;7.346;2023-05-10T08:12:30;13.60;99.90
45983;DHT22;31711;47.158;7.346;2023-05-10T08:14:56;13.70;99.90
45983;DHT22;31711;47.158;7.346;2023-05-10T08:17:22;13.70;99.90
45983;DHT22;31711;47.158;7.346;2023-05-10T08:19:48;13.90;99.90
45983;DHT22;31711;47.158;7.346;2023-05-10T08:22:14;13.80;99.90
45983;DHT22;31711;47.158;7.346;2023-05-10T08:24:41;13.60;99.90
45983;DHT22;31711;47.158;7.346;2023-05-10T08:27:08;13.80;99.90
45983;DHT22;31711;47.158;7.346;2023-05-10T08:29:34;13.90;99.90
45983;DHT22;31711;47.158;7.346;2023-05-10T08:32:00;14.00;99.90
45983;DHT22;31711;47.158;7.346;2023-05-10T08:34:27;14.10;99.90
45983;DHT22;31711;47.158;7.346;2023-05-10T08:36:53;14.10;99.90
45983;DHT22;31711;47.158;7.346;2023-05-10T08:39:18;14.20;99.90
45983;DHT22;31711;47.158;7.346;2023-05-10T08:41:47;14.20;99.90
45983;DHT22;31711;47.158;7.346;2023-05-10T08:44:13;14.50;99.90
45983;DHT22;31711;47.158;7.346;2023-05-10T08:46:41;15.00;99.90
45983;DHT22;31711;47.158;7.346;2023-05-10T08:49:11;14.90;99.90
45983;DHT22;31711;47.158;7.346;2023-05-10T08:51:40;14.70;99.90
45983;DHT22;31711;47.158;7.346;2023-05-10T08:54:07;14.70;99.90
45983;DHT22;31711;47.158;7.346;2023-05-10T08:56:34;14.10;99.90
45983;DHT22;31711;47.158;7.346;2023-05-10T08:59:00;14.00;99.90
45983;DHT22;31711;47.158;7.346;2023-05-10T09:01:26;13.90;99.90
45983;DHT22;31711;47.158;7.346;2023-05-10T09:03:53;14.00;99.90
45983;DHT22;31711;47.158;7.346;2023-05-10T09:06:19;14.50;99.90
45983;DHT22;31711;47.158;7.346;2023-05-10T09:08:45;14.80;99.90
45983;DHT22;31711;47.158;7.346;2023-05-10T09:11:12;15.10;99.90
45983;DHT22;31711;47.158;7.346;2023-05-10T09:13:38;15.10;99.90
45983;DHT22;31711;47.158;7.346;2023-05-10T09:16:05;15.10;99.90
45983;DHT22;31711;47.158;7.346;2023-05-10T09:18:31;15.10;99.90
45983;DHT22;31711;47.158;7.346;2023-05-10T09:20:57;15.40;99.90
45983;DHT22;31711;47.158;7.346;2023-05-10T09:23:23;15.70;99.90
45983;DHT22;31711;47.158;7.346;2023-05-10T09:26:14;15.60;99.90
45983;DHT22;31711;47.158;7.346;2023-05-10T09:29:09;15.90;99.90
45983;DHT22;31711;47.158;7.346;2023-05-10T09:31:51;15.90;99.90
45983;DHT22;31711;47.158;7.346;2023-05-10T09:34:29;15.40;99.90
45983;DHT22;31711;47.158;7.346;2023-05-10T09:37:00;15.60;99.90
45983;DHT22;31711;47.158;7.346;2023-05-10T09:39:35;15.80;99.90
45983;DHT22;31711;47.158;7.346;2023-05-10T09:42:04;15.90;99.90
45983;DHT22;31711;47.158;7.346;2023-05-10T09:44:32;16.40;99.90
45983;DHT22;31711;47.158;7.346;2023-05-10T09:46:58;16.20;99.90
45983;DHT22;31711;47.158;7.346;2023-05-10T09:49:24;16.10;99.90
45983;DHT22;31711;47.158;7.346;2023-05-10T09:52:04;16.10;99.90
45983;DHT22;31711;47.158;7.346;2023-05-10T09:54:31;16.10;99.90
45983;DHT22;31711;47.158;7.346;2023-05-10T09:56:57;15.90;99.90
45983;DHT22;31711;47.158;7.346;2023-05-10T09:59:25;15.90;99.90
45983;DHT22;31711;47.158;7.346;2023-05-10T10:01:53;16.00;99.90
45983;DHT22;31711;47.158;7.346;2023-05-10T10:04:21;15.80;99.90
45983;DHT22;31711;47.158;7.346;2023-05-10T10:09:27;15.90;99.90
45983;DHT22;31711;47.158;7.346;2023-05-10T10:11:54;16.00;99.90
45983;DHT22;31711;47.158;7.346;2023-05-10T10:14:20;16.20;99.90
45983;DHT22;31711;47.158;7.346;2023-05-10T10:16:47;16.40;99.90
45983;DHT22;31711;47.158;7.346;2023-05-10T10:19:15;16.30;99.90
45983;DHT22;31711;47.158;7.346;2023-05-10T10:21:41;15.60;99.90
45983;DHT22;31711;47.158;7.346;2023-05-10T10:24:07;15.10;99.90
45983;DHT22;31711;47.158;7.346;2023-05-10T10:26:36;15.00;99.90
45983;DHT22;31711;47.158;7.346;2023-05-10T10:29:24;14.80;99.90
45983;DHT22;31711;47.158;7.346;2023-05-10T10:34:51;14.90;99.90
45983;DHT22;31711;47.158;7.346;2023-05-10T10:37:19;14.90;99.90
45983;DHT22;31711;47.158;7.346;2023-05-10T10:39:48;14.70;99.90
45983;DHT22;31711;47.158;7.346;2023-05-10T10:42:14;14.90;99.90
45983;DHT22;31711;47.158;7.346;2023-05-10T10:45:13;15.30;99.90
45983;DHT22;31711;47.158;7.346;2023-05-10T10:47:39;15.50;99.90
45983;DHT22;31711;47.158;7.346;2023-05-10T10:50:06;15.70;99.90
45983;DHT22;31711;47.158;7.346;2023-05-10T10:52:37;16.10;99.90
45983;DHT22;31711;47.158;7.346;2023-05-10T10:55:14;16.00;99.90
45983;DHT22;31711;47.158;7.346;2023-05-10T11:02:56;16.50;99.90
45983;DHT22;31711;47.158;7.346;2023-05-10T11:10:35;17.00;99.90
45983;DHT22;31711;47.158;7.346;2023-05-10T11:13:03;17.10;99.90
45983;DHT22;31711;47.158;7.346;2023-05-10T11:15:34;16.90;99.90
45983;DHT22;31711;47.158;7.346;2023-05-10T11:18:19;17.10;99.90
45983;DHT22;31711;47.158;7.346;2023-05-10T11:20:51;17.30;99.90
45983;DHT22;31711;47.158;7.346;2023-05-10T11:23:17;17.60;99.90
45983;DHT22;31711;47.158;7.346;2023-05-10T11:25:45;17.60;99.90
45983;DHT22;31711;47.158;7.346;2023-05-10T11:28:12;17.80;99.90
45983;DHT22;31711;47.158;7.346;2023-05-10T11:30:43;17.70;99.90
45983;DHT22;31711;47.158;7.346;2023-05-10T11:33:14;18.00;99.90
45983;DHT22;31711;47.158;7.346;2023-05-10T11:35:41;18.10;99.90
45983;DHT22;31711;47.158;7.346;2023-05-10T11:38:11;18.00;99.90
45983;DHT22;31711;47.158;7.346;2023-05-10T11:40:37;18.40;99.90
45983;DHT22;31711;47.158;7.346;2023-05-10T11:43:04;18.60;99.90
45983;DHT22;31711;47.158;7.346;2023-05-10T11:45:34;18.30;99.90
45983;DHT22;31711;47.158;7.346;2023-05-10T11:48:01;17.70;99.90
45983;DHT22;31711;47.158;7.346;2023-05-10T11:50:28;17.80;99.90
45983;DHT22;31711;47.158;7.346;2023-05-10T11:52:55;17.80;99.90
45983;DHT22;31711;47.158;7.346;2023-05-10T11:55:22;17.30;99.90
45983;DHT22;31711;47.158;7.346;2023-05-10T11:57:52;17.50;99.90
45983;DHT22;31711;47.158;7.346;2023-05-10T12:00:18;17.90;99.90
45983;DHT22;31711;47.158;7.346;2023-05-10T12:02:44;18.40;99.90
45983;DHT22;31711;47.158;7.346;2023-05-10T12:05:10;18.70;99.90
45983;DHT22;31711;47.158;7.346;2023-05-10T12:07:36;18.90;99.90
45983;DHT22;31711;47.158;7.346;2023-05-10T12:10:10;18.10;99.90
45983;DHT22;31711;47.158;7.346;2023-05-10T12:12:46;18.50;99.90
45983;DHT22;31711;47.158;7.346;2023-05-10T12:15:22;19.00;99.90
45983;DHT22;31711;47.158;7.346;2023-05-10T12:17:49;19.20;99.90
45983;DHT22;31711;47.158;7.346;2023-05-10T12:22:45;19.00;99.90
45983;DHT22;31711;47.158;7.346;2023-05-10T12:25:11;19.10;99.90
45983;DHT22;31711;47.158;7.346;2023-05-10T12:27:37;18.90;99.90
45983;DHT22;31711;47.158;7.346;2023-05-10T12:30:03;18.60;99.70
45983;DHT22;31711;47.158;7.346;2023-05-10T12:32:43;17.80;99.90
45983;DHT22;31711;47.158;7.346;2023-05-10T12:35:10;17.00;99.90
45983;DHT22;31711;47.158;7.346;2023-05-10T12:37:36;16.50;99.90
45983;DHT22;31711;47.158;7.346;2023-05-10T12:40:10;16.30;99.90
45983;DHT22;31711;47.158;7.346;2023-05-10T12:42:38;15.90;99.90
45983;DHT22;31711;47.158;7.346;2023-05-10T12:45:05;15.80;99.90
45983;DHT22;31711;47.158;7.346;2023-05-10T12:47:32;15.90;99.90
45983;DHT22;31711;47.158;7.346;2023-05-10T12:50:00;16.30;99.90
45983;DHT22;31711;47.158;7.346;2023-05-10T12:52:27;16.80;99.90
45983;DHT22;31711;47.158;7.346;2023-05-10T12:54:53;17.50;99.90
45983;DHT22;31711;47.158;7.346;2023-05-10T12:57:22;17.10;99.90
45983;DHT22;31711;47.158;7.346;2023-05-10T12:59:49;17.00;99.90
45983;DHT22;31711;47.158;7.346;2023-05-10T13:02:15;16.80;99.90
45983;DHT22;31711;47.158;7.346;2023-05-10T13:04:44;16.80;99.90
45983;DHT22;31711;47.158;7.346;2023-05-10T13:07:10;17.20;99.90
45983;DHT22;31711;47.158;7.346;2023-05-10T13:09:36;17.50;99.90
45983;DHT22;31711;47.158;7.346;2023-05-10T13:12:02;17.70;99.90
45983;DHT22;31711;47.158;7.346;2023-05-10T13:14:30;18.00;99.90
45983;DHT22;31711;47.158;7.346;2023-05-10T13:16:56;17.80;99.90
45983;DHT22;31711;47.158;7.346;2023-05-10T13:19:22;17.90;99.90
45983;DHT22;31711;47.158;7.346;2023-05-10T13:21:47;17.80;99.90
45983;DHT22;31711;47.158;7.346;2023-05-10T13:24:13;18.60;99.90
45983;DHT22;31711;47.158;7.346;2023-05-10T13:26:40;18.80;99.90
45983;DHT22;31711;47.158;7.346;2023-05-10T13:29:07;18.90;99.40
45983;DHT22;31711;47.158;7.346;2023-05-10T13:31:34;18.90;98.50
45983;DHT22;31711;47.158;7.346;2023-05-10T13:34:00;19.10;99.80
45983;DHT22;31711;47.158;7.346;2023-05-10T13:36:26;18.80;99.10
45983;DHT22;31711;47.158;7.346;2023-05-10T13:38:52;18.80;98.50
45983;DHT22;31711;47.158;7.346;2023-05-10T13:41:18;18.20;98.90
45983;DHT22;31711;47.158;7.346;2023-05-10T13:43:44;17.60;97.60
45983;DHT22;31711;47.158;7.346;2023-05-10T13:46:10;17.70;98.60
45983;DHT22;31711;47.158;7.346;2023-05-10T13:48:36;18.00;99.80
45983;DHT22;31711;47.158;7.346;2023-05-10T13:51:04;18.40;96.70
45983;DHT22;31711;47.158;7.346;2023-05-10T13:53:30;18.60;96.90
45983;DHT22;31711;47.158;7.346;2023-05-10T13:55:56;18.80;98.00
45983;DHT22;31711;47.158;7.346;2023-05-10T13:58:22;19.10;98.10
45983;DHT22;31711;47.158;7.346;2023-05-10T14:00:49;18.60;97.20
45983;DHT22;31711;47.158;7.346;2023-05-10T14:03:15;18.10;97.70
45983;DHT22;31711;47.158;7.346;2023-05-10T14:05:41;18.30;97.80
45983;DHT22;31711;47.158;7.346;2023-05-10T14:08:07;18.20;98.40
45983;DHT22;31711;47.158;7.346;2023-05-10T14:10:34;17.80;98.40
45983;DHT22;31711;47.158;7.346;2023-05-10T14:13:00;17.80;98.70
45983;DHT22;31711;47.158;7.346;2023-05-10T14:15:26;17.80;98.20
45983;DHT22;31711;47.158;7.346;2023-05-10T14:17:52;17.60;99.10
45983;DHT22;31711;47.158;7.346;2023-05-10T14:20:19;17.20;99.70
45983;DHT22;31711;47.158;7.346;2023-05-10T14:22:44;17.00;99.90
45983;DHT22;31711;47.158;7.346;2023-05-10T14:25:10;16.90;99.60
45983;DHT22;31711;47.158;7.346;2023-05-10T14:27:37;16.70;99.90
45983;DHT22;31711;47.158;7.346;2023-05-10T14:30:03;16.70;99.90
45983;DHT22;31711;47.158;7.346;2023-05-10T14:32:29;16.70;99.90
45983;DHT22;31711;47.158;7.346;2023-05-10T14:34:57;16.90;99.90
45983;DHT22;31711;47.158;7.346;2023-05-10T14:37:23;17.00;99.90
45983;DHT22;31711;47.158;7.346;2023-05-10T14:39:49;16.80;99.90
45983;DHT22;31711;47.158;7.346;2023-05-10T14:42:15;16.70;98.30
45983;DHT22;31711;47.158;7.346;2023-05-10T14:44:41;16.80;99.80
45983;DHT22;31711;47.158;7.346;2023-05-10T14:47:07;17.00;99.90
45983;DHT22;31711;47.158;7.346;2023-05-10T14:49:33;17.00;99.90
45983;DHT22;31711;47.158;7.346;2023-05-10T14:51:59;16.80;99.90
45983;DHT22;31711;47.158;7.346;2023-05-10T14:54:25;16.70;99.90
45983;DHT22;31711;47.158;7.346;2023-05-10T14:56:51;16.70;99.90
45983;DHT22;31711;47.158;7.346;2023-05-10T14:59:17;16.70;99.40
45983;DHT22;31711;47.158;7.346;2023-05-10T15:01:43;16.70;99.90
45983;DHT22;31711;47.158;7.346;2023-05-10T15:04:09;16.50;99.60
45983;DHT22;31711;47.158;7.346;2023-05-10T15:06:35;16.50;99.90
45983;DHT22;31711;47.158;7.346;2023-05-10T15:09:02;16.30;99.90
45983;DHT22;31711;47.158;7.346;2023-05-10T15:11:31;16.20;99.90
45983;DHT22;31711;47.158;7.346;2023-05-10T15:13:57;16.20;99.90
45983;DHT22;31711;47.158;7.346;2023-05-10T15:16:23;16.20;99.90
45983;DHT22;31711;47.158;7.346;2023-05-10T15:18:50;16.00;99.90
45983;DHT22;31711;47.158;7.346;2023-05-10T15:21:16;15.90;99.90
45983;DHT22;31711;47.158;7.346;2023-05-10T15:23:42;15.80;99.90
45983;DHT22;31711;47.158;7.346;2023-05-10T15:26:08;15.90;99.90
45983;DHT22;31711;47.158;7.346;2023-05-10T15:28:34;15.60;99.90
45983;DHT22;31711;47.158;7.346;2023-05-10T15:31:00;15.30;99.90
45983;DHT22;31711;47.158;7.346;2023-05-10T15:33:26;15.10;99.90
45983;DHT22;31711;47.158;7.346;2023-05-10T15:35:53;15.20;99.90
45983;DHT22;31711;47.158;7.346;2023-05-10T15:38:19;15.30;99.90
45983;DHT22;31711;47.158;7.346;2023-05-10T15:40:45;15.50;99.90
45983;DHT22;31711;47.158;7.346;2023-05-10T15:43:11;15.40;99.90
45983;DHT22;31711;47.158;7.346;2023-05-10T15:45:37;15.40;99.90
45983;DHT22;31711;47.158;7.346;2023-05-10T15:48:03;15.30;99.90
45983;DHT22;31711;47.158;7.346;2023-05-10T15:50:29;15.50;99.90
45983;DHT22;31711;47.158;7.346;2023-05-10T15:52:55;15.70;99.90
45983;DHT22;31711;47.158;7.346;2023-05-10T15:55:21;15.80;99.90
45983;DHT22;31711;47.158;7.346;2023-05-10T15:57:47;15.70;99.90
45983;DHT22;31711;47.158;7.346;2023-05-10T16:00:14;15.70;99.90
45983;DHT22;31711;47.158;7.346;2023-05-10T16:02:40;15.70;99.90
45983;DHT22;31711;47.158;7.346;2023-05-10T16:05:07;15.60;99.90
45983;DHT22;31711;47.158;7.346;2023-05-10T16:07:34;15.50;99.90
45983;DHT22;31711;47.158;7.346;2023-05-10T16:10:00;15.50;99.90
45983;DHT22;31711;47.158;7.346;2023-05-10T16:12:31;15.30;99.90